sensor_id;sensor_type;location;lat;lon;timestamp;pressure;altitude;pressure_sealevel;temperature;humidity
21879;BME280;27908;42.708;23.278;2023-03-26T00:00:43;63626.69;;;10.10;100.00
21879;BME280;27908;42.708;23.278;2023-03-26T00:03:12;63628.75;;;10.12;100.00
21879;BME280;27908;42.708;23.278;2023-03-26T00:05:38;63626.63;;;10.05;100.00
21879;BME280;27908;42.708;23.278;2023-03-26T00:08:04;63606.19;;;9.97;100.00
21879;BME280;27908;42.708;23.278;2023-03-26T00:10:36;63641.47;;;10.12;100.00
21879;BME280;27908;42.708;23.278;2023-03-26T00:13:04;63638.91;;;10.09;100.00
21879;BME280;27908;42.708;23.278;2023-03-26T00:15:30;63635.94;;;10.16;100.00
21879;BME280;27908;42.708;23.278;2023-03-26T00:17:56;63626.19;;;10.12;100.00
21879;BME280;27908;42.708;23.278;2023-03-26T00:20:22;63601.78;;;10.15;100.00
21879;BME280;27908;42.708;23.278;2023-03-26T00:22:48;63622.16;;;10.13;100.00
21879;BME280;27908;42.708;23.278;2023-03-26T00:25:15;63610.44;;;10.14;100.00
21879;BME280;27908;42.708;23.278;2023-03-26T00:27:41;63590.53;;;10.09;100.00
21879;BME280;27908;42.708;23.278;2023-03-26T00:30:10;63605.75;;;10.02;100.00
21879;BME280;27908;42.708;23.278;2023-03-26T00:32:36;63600.06;;;9.96;100.00
21879;BME280;27908;42.708;23.278;2023-03-26T00:35:02;63590.91;;;9.97;100.00
21879;BME280;27908;42.708;23.278;2023-03-26T00:37:29;63590.69;;;9.78;100.00
21879;BME280;27908;42.708;23.278;2023-03-26T00:39:56;63584.16;;;9.86;100.00
21879;BME280;27908;42.708;23.278;2023-03-26T00:42:24;63563.69;;;9.74;100.00
21879;BME280;27908;42.708;23.278;2023-03-26T00:44:50;63619.78;;;9.86;100.00
21879;BME280;27908;42.708;23.278;2023-03-26T00:47:20;63594.25;;;9.79;100.00
21879;BME280;27908;42.708;23.278;2023-03-26T00:49:45;63597.28;;;9.77;100.00
21879;BME280;27908;42.708;23.278;2023-03-26T00:52:13;63588.16;;;9.80;100.00
21879;BME280;27908;42.708;23.278;2023-03-26T00:54:46;63559.69;;;9.82;100.00
21879;BME280;27908;42.708;23.278;2023-03-26T00:57:12;63557.50;;;9.68;100.00
21879;BME280;27908;42.708;23.278;2023-03-26T00:59:38;63579.50;;;9.79;100.00
21879;BME280;27908;42.708;23.278;2023-03-26T01:02:05;63588.66;;;9.78;100.00
21879;BME280;27908;42.708;23.278;2023-03-26T01:04:32;63587.66;;;9.80;100.00
21879;BME280;27908;42.708;23.278;2023-03-26T01:07:19;63612.63;;;9.82;100.00
21879;BME280;27908;42.708;23.278;2023-03-26T01:09:47;63580.03;;;9.80;100.00
21879;BME280;27908;42.708;23.278;2023-03-26T01:12:19;63567.84;;;9.85;100.00
21879;BME280;27908;42.708;23.278;2023-03-26T01:14:49;63597.88;;;9.85;100.00
21879;BME280;27908;42.708;23.278;2023-03-26T01:17:16;63586.69;;;9.84;100.00
21879;BME280;27908;42.708;23.278;2023-03-26T01:20:00;63590.56;;;9.65;100.00
21879;BME280;27908;42.708;23.278;2023-03-26T01:22:36;63578.88;;;9.69;100.00
21879;BME280;27908;42.708;23.278;2023-03-26T01:25:04;63586.44;;;9.61;100.00
21879;BME280;27908;42.708;23.278;2023-03-26T01:27:43;63551.81;;;9.57;100.00
21879;BME280;27908;42.708;23.278;2023-03-26T01:30:23;63557.03;;;9.70;100.00
21879;BME280;27908;42.708;23.278;2023-03-26T01:33:21;63588.69;;;9.81;100.00
21879;BME280;27908;42.708;23.278;2023-03-26T01:35:59;63613.13;;;9.82;100.00
21879;BME280;27908;42.708;23.278;2023-03-26T01:41:25;63592.78;;;9.85;100.00
21879;BME280;27908;42.708;23.278;2023-03-26T01:44:30;63552.63;;;9.88;100.00
21879;BME280;27908;42.708;23.278;2023-03-26T01:46:59;63593.84;;;9.88;100.00
21879;BME280;27908;42.708;23.278;2023-03-26T01:49:26;63608.03;;;9.82;100.00
21879;BME280;27908;42.708;23.278;2023-03-26T01:51:54;63605.16;;;9.94;100.00
21879;BME280;27908;42.708;23.278;2023-03-26T01:54:22;63550.47;;;9.76;100.00
21879;BME280;27908;42.708;23.278;2023-03-26T01:56:55;63570.34;;;9.78;100.00
21879;BME280;27908;42.708;23.278;2023-03-26T01:59:44;63572.28;;;9.70;100.00
21879;BME280;27908;42.708;23.278;2023-03-26T02:02:35;63504.94;;;9.54;100.00
21879;BME280;27908;42.708;23.278;2023-03-26T02:05:24;63561.88;;;9.50;100.00
21879;BME280;27908;42.708;23.278;2023-03-26T02:08:33;63609.78;;;9.57;100.00
21879;BME280;27908;42.708;23.278;2023-03-26T02:11:02;63528.81;;;9.48;100.00
21879;BME280;27908;42.708;23.278;2023-03-26T02:13:29;63510.44;;;9.45;100.00
21879;BME280;27908;42.708;23.278;2023-03-26T02:16:00;63540.94;;;9.42;100.00
21879;BME280;27908;42.708;23.278;2023-03-26T02:18:27;63535.38;;;9.44;100.00
21879;BME280;27908;42.708;23.278;2023-03-26T02:21:11;63538.47;;;9.50;100.00
21879;BME280;27908;42.708;23.278;2023-03-26T02:23:39;63550.22;;;9.54;100.00
21879;BME280;27908;42.708;23.278;2023-03-26T02:26:06;63551.28;;;9.57;100.00
21879;BME280;27908;42.708;23.278;2023-03-26T02:28:32;63566.13;;;9.66;100.00
21879;BME280;27908;42.708;23.278;2023-03-26T02:30:57;63550.44;;;9.73;100.00
21879;BME280;27908;42.708;23.278;2023-03-26T02:36:12;63527.59;;;9.81;100.00
21879;BME280;27908;42.708;23.278;2023-03-26T02:38:38;63622.28;;;9.81;100.00
21879;BME280;27908;42.708;23.278;2023-03-26T02:41:04;63548.81;;;9.64;100.00
21879;BME280;27908;42.708;23.278;2023-03-26T02:43:30;63537.19;;;9.70;100.00
21879;BME280;27908;42.708;23.278;2023-03-26T02:45:55;63542.66;;;9.58;100.00
21879;BME280;27908;42.708;23.278;2023-03-26T02:48:21;63558.31;;;9.49;100.00
21879;BME280;27908;42.708;23.278;2023-03-26T02:50:46;63511.91;;;9.39;100.00
21879;BME280;27908;42.708;23.278;2023-03-26T02:53:15;63501.25;;;9.41;100.00
21879;BME280;27908;42.708;23.278;2023-03-26T02:55:40;63548.88;;;9.23;100.00
21879;BME280;27908;42.708;23.278;2023-03-26T02:58:06;63509.75;;;9.27;100.00
21879;BME280;27908;42.708;23.278;2023-03-26T03:00:32;63493.44;;;9.21;100.00
21879;BME280;27908;42.708;23.278;2023-03-26T03:02:58;63509.16;;;9.19;100.00
21879;BME280;27908;42.708;23.278;2023-03-26T03:05:24;63463.34;;;9.14;100.00
21879;BME280;27908;42.708;23.278;2023-03-26T03:07:52;63468.44;;;9.14;100.00
21879;BME280;27908;42.708;23.278;2023-03-26T03:10:23;63502.94;;;9.08;100.00
21879;BME280;27908;42.708;23.278;2023-03-26T03:12:49;63496.25;;;9.02;100.00
21879;BME280;27908;42.708;23.278;2023-03-26T03:15:15;63498.28;;;9.01;100.00
21879;BME280;27908;42.708;23.278;2023-03-26T03:17:40;63501.88;;;9.05;100.00
21879;BME280;27908;42.708;23.278;2023-03-26T03:20:06;63503.97;;;9.09;100.00
21879;BME280;27908;42.708;23.278;2023-03-26T03:22:35;63472.28;;;8.93;100.00
21879;BME280;27908;42.708;23.278;2023-03-26T03:25:02;63670.09;;;9.00;100.00
21879;BME280;27908;42.708;23.278;2023-03-26T03:27:28;63493.19;;;9.01;100.00
21879;BME280;27908;42.708;23.278;2023-03-26T03:29:54;63458.09;;;8.97;100.00
21879;BME280;27908;42.708;23.278;2023-03-26T03:32:20;63435.59;;;8.85;100.00
21879;BME280;27908;42.708;23.278;2023-03-26T03:34:47;63472.22;;;8.88;100.00
21879;BME280;27908;42.708;23.278;2023-03-26T03:37:15;63453.78;;;8.76;100.00
21879;BME280;27908;42.708;23.278;2023-03-26T03:39:40;63493.59;;;8.92;100.00
21879;BME280;27908;42.708;23.278;2023-03-26T03:42:06;63472.72;;;8.87;100.00
21879;BME280;27908;42.708;23.278;2023-03-26T03:44:31;63430.56;;;8.90;100.00
21879;BME280;27908;42.708;23.278;2023-03-26T03:46:56;63452.44;;;8.91;100.00
21879;BME280;27908;42.708;23.278;2023-03-26T03:49:22;63457.78;;;8.70;100.00
21879;BME280;27908;42.708;23.278;2023-03-26T03:51:47;63482.25;;;8.76;100.00
21879;BME280;27908;42.708;23.278;2023-03-26T03:54:13;63478.22;;;8.80;100.00
21879;BME280;27908;42.708;23.278;2023-03-26T03:56:38;63468.50;;;8.75;100.00
21879;BME280;27908;42.708;23.278;2023-03-26T03:59:04;63424.13;;;8.57;100.00
21879;BME280;27908;42.708;23.278;2023-03-26T04:01:29;63460.41;;;8.77;100.00
21879;BME280;27908;42.708;23.278;2023-03-26T04:03:56;63489.91;;;8.81;100.00
21879;BME280;27908;42.708;23.278;2023-03-26T04:06:22;63473.66;;;8.80;100.00
21879;BME280;27908;42.708;23.278;2023-03-26T04:08:52;63491.94;;;8.81;100.00
21879;BME280;27908;42.708;23.278;2023-03-26T04:11:17;63465.97;;;8.75;100.00
21879;BME280;27908;42.708;23.278;2023-03-26T04:13:43;63477.69;;;8.77;100.00
21879;BME280;27908;42.708;23.278;2023-03-26T04:16:09;63470.66;;;8.85;100.00
21879;BME280;27908;42.708;23.278;2023-03-26T04:18:35;63461.50;;;8.86;100.00
21879;BME280;27908;42.708;23.278;2023-03-26T04:21:02;63482.38;;;8.88;100.00
21879;BME280;27908;42.708;23.278;2023-03-26T04:23:29;63473.31;;;8.94;100.00
21879;BME280;27908;42.708;23.278;2023-03-26T04:25:57;63477.88;;;8.94;100.00
21879;BME280;27908;42.708;23.278;2023-03-26T04:28:49;63476.38;;;8.97;100.00
21879;BME280;27908;42.708;23.278;2023-03-26T04:31:20;63451.97;;;8.96;100.00
21879;BME280;27908;42.708;23.278;2023-03-26T04:33:54;63468.16;;;8.87;100.00
21879;BME280;27908;42.708;23.278;2023-03-26T04:36:27;63531.81;;;8.99;100.00
21879;BME280;27908;42.708;23.278;2023-03-26T04:38:54;63512.50;;;9.00;100.00
21879;BME280;27908;42.708;23.278;2023-03-26T04:41:20;63493.19;;;9.01;100.00
21879;BME280;27908;42.708;23.278;2023-03-26T04:43:47;63507.53;;;9.10;100.00
21879;BME280;27908;42.708;23.278;2023-03-26T04:46:15;63516.19;;;9.11;100.00
21879;BME280;27908;42.708;23.278;2023-03-26T04:48:43;63488.75;;;9.14;100.00
21879;BME280;27908;42.708;23.278;2023-03-26T04:51:11;63496.81;;;9.07;100.00
21879;BME280;27908;42.708;23.278;2023-03-26T04:53:50;63468.50;;;9.19;100.00
21879;BME280;27908;42.708;23.278;2023-03-26T04:56:26;63548.34;;;9.22;100.00
21879;BME280;27908;42.708;23.278;2023-03-26T04:58:58;63540.28;;;9.27;100.00
21879;BME280;27908;42.708;23.278;2023-03-26T05:01:24;63515.28;;;9.20;100.00
21879;BME280;27908;42.708;23.278;2023-03-26T05:03:52;63522.38;;;9.20;100.00
21879;BME280;27908;42.708;23.278;2023-03-26T05:06:18;63478.00;;;9.06;100.00
21879;BME280;27908;42.708;23.278;2023-03-26T05:08:43;63485.72;;;9.14;100.00
21879;BME280;27908;42.708;23.278;2023-03-26T05:11:09;63522.38;;;9.20;100.00
21879;BME280;27908;42.708;23.278;2023-03-26T05:13:36;63493.84;;;9.14;100.00
21879;BME280;27908;42.708;23.278;2023-03-26T05:16:02;63477.19;;;9.25;100.00
21879;BME280;27908;42.708;23.278;2023-03-26T05:18:27;63526.66;;;9.38;100.00
21879;BME280;27908;42.708;23.278;2023-03-26T05:20:52;63495.28;;;9.06;100.00
21879;BME280;27908;42.708;23.278;2023-03-26T05:23:18;63510.13;;;9.13;100.00
21879;BME280;27908;42.708;23.278;2023-03-26T05:25:43;63502.03;;;9.20;100.00
21879;BME280;27908;42.708;23.278;2023-03-26T05:28:11;63629.81;;;9.32;100.00
21879;BME280;27908;42.708;23.278;2023-03-26T05:30:36;63514.97;;;9.37;100.00
21879;BME280;27908;42.708;23.278;2023-03-26T05:33:02;63523.44;;;9.23;100.00
21879;BME280;27908;42.708;23.278;2023-03-26T05:35:28;63518.97;;;9.33;100.00
21879;BME280;27908;42.708;23.278;2023-03-26T05:37:53;63503.88;;;9.48;100.00
21879;BME280;27908;42.708;23.278;2023-03-26T05:40:19;63528.34;;;9.52;100.00
21879;BME280;27908;42.708;23.278;2023-03-26T05:42:45;63585.81;;;9.51;100.00
21879;BME280;27908;42.708;23.278;2023-03-26T05:45:13;63521.06;;;9.38;100.00
21879;BME280;27908;42.708;23.278;2023-03-26T05:47:39;63553.16;;;9.44;100.00
21879;BME280;27908;42.708;23.278;2023-03-26T05:50:05;63565.97;;;9.49;100.00
21879;BME280;27908;42.708;23.278;2023-03-26T05:52:32;63571.63;;;9.57;100.00
21879;BME280;27908;42.708;23.278;2023-03-26T05:54:57;63558.94;;;9.59;100.00
21879;BME280;27908;42.708;23.278;2023-03-26T05:57:23;63559.91;;;9.56;100.00
21879;BME280;27908;42.708;23.278;2023-03-26T05:59:53;63559.09;;;9.74;100.00
21879;BME280;27908;42.708;23.278;2023-03-26T06:02:18;63598.31;;;9.78;100.00
21879;BME280;27908;42.708;23.278;2023-03-26T06:04:43;63738.75;;;9.76;100.00
21879;BME280;27908;42.708;23.278;2023-03-26T06:07:10;63605.53;;;9.87;99.37
21879;BME280;27908;42.708;23.278;2023-03-26T06:09:36;63567.19;;;9.70;100.00
21879;BME280;27908;42.708;23.278;2023-03-26T06:12:04;63574.75;;;9.62;99.72
21879;BME280;27908;42.708;23.278;2023-03-26T06:14:30;63584.03;;;9.74;100.00
21879;BME280;27908;42.708;23.278;2023-03-26T06:16:56;63574.38;;;9.74;99.30
21879;BME280;27908;42.708;23.278;2023-03-26T06:19:21;63604.81;;;9.67;100.00
21879;BME280;27908;42.708;23.278;2023-03-26T06:21:47;63600.34;;;9.77;100.00
21879;BME280;27908;42.708;23.278;2023-03-26T06:24:12;63603.47;;;9.83;100.00
21879;BME280;27908;42.708;23.278;2023-03-26T06:26:38;63625.50;;;9.94;98.99
21879;BME280;27908;42.708;23.278;2023-03-26T06:29:04;63629.03;;;9.90;97.08
21879;BME280;27908;42.708;23.278;2023-03-26T06:31:29;63608.31;;;10.07;96.96
21879;BME280;27908;42.708;23.278;2023-03-26T06:33:54;63646.59;;;10.14;96.63
21879;BME280;27908;42.708;23.278;2023-03-26T06:36:20;63675.69;;;10.20;94.36
21879;BME280;27908;42.708;23.278;2023-03-26T06:38:45;63655.28;;;10.18;95.08
21879;BME280;27908;42.708;23.278;2023-03-26T06:41:11;63640.63;;;10.28;95.44
21879;BME280;27908;42.708;23.278;2023-03-26T06:43:36;63670.31;;;10.42;93.99
21879;BME280;27908;42.708;23.278;2023-03-26T06:46:03;63653.94;;;10.33;91.88
21879;BME280;27908;42.708;23.278;2023-03-26T06:48:29;63691.78;;;10.48;91.67
21879;BME280;27908;42.708;23.278;2023-03-26T06:50:54;63683.75;;;10.57;90.61
21879;BME280;27908;42.708;23.278;2023-03-26T06:53:20;63666.25;;;10.40;89.82
21879;BME280;27908;42.708;23.278;2023-03-26T06:55:45;63720.88;;;10.51;91.07
21879;BME280;27908;42.708;23.278;2023-03-26T06:58:12;63705.25;;;10.68;91.12
21879;BME280;27908;42.708;23.278;2023-03-26T07:00:37;63702.22;;;10.70;89.55
21879;BME280;27908;42.708;23.278;2023-03-26T07:03:03;63687.41;;;10.68;88.08
21879;BME280;27908;42.708;23.278;2023-03-26T07:05:29;63699.75;;;10.77;87.50
21879;BME280;27908;42.708;23.278;2023-03-26T07:07:55;63754.38;;;10.83;87.54
21879;BME280;27908;42.708;23.278;2023-03-26T07:10:20;63729.09;;;10.57;86.71
21879;BME280;27908;42.708;23.278;2023-03-26T07:12:46;63700.75;;;10.76;88.59
21879;BME280;27908;42.708;23.278;2023-03-26T07:15:11;63714.09;;;10.84;86.35
21879;BME280;27908;42.708;23.278;2023-03-26T07:17:37;63751.38;;;10.88;83.38
21879;BME280;27908;42.708;23.278;2023-03-26T07:20:07;63760.66;;;10.99;85.03
21879;BME280;27908;42.708;23.278;2023-03-26T07:22:33;63758.66;;;11.02;82.47
21879;BME280;27908;42.708;23.278;2023-03-26T07:24:59;63700.88;;;10.88;82.23
21879;BME280;27908;42.708;23.278;2023-03-26T07:33:09;63722.31;;;10.89;81.95
21879;BME280;27908;42.708;23.278;2023-03-26T07:36:14;63747.47;;;11.03;83.29
21879;BME280;27908;42.708;23.278;2023-03-26T07:44:40;63795.81;;;11.42;80.39
21879;BME280;27908;42.708;23.278;2023-03-26T07:47:41;63830.00;;;11.41;80.16
21879;BME280;27908;42.708;23.278;2023-03-26T07:50:14;63801.91;;;11.38;80.37
21879;BME280;27908;42.708;23.278;2023-03-26T07:52:40;63828.63;;;11.54;81.34
21879;BME280;27908;42.708;23.278;2023-03-26T07:55:06;63856.88;;;11.72;77.80
21879;BME280;27908;42.708;23.278;2023-03-26T08:05:49;63896.38;;;11.87;69.81
21879;BME280;27908;42.708;23.278;2023-03-26T08:10:56;63940.78;;;12.30;68.98
21879;BME280;27908;42.708;23.278;2023-03-26T08:13:43;63965.88;;;12.34;69.36
21879;BME280;27908;42.708;23.278;2023-03-26T08:22:01;63975.13;;;12.41;68.55
21879;BME280;27908;42.708;23.278;2023-03-26T08:25:01;63986.03;;;12.56;68.64
21879;BME280;27908;42.708;23.278;2023-03-26T08:27:42;63980.91;;;12.53;65.78
21879;BME280;27908;42.708;23.278;2023-03-26T08:30:16;63972.63;;;12.45;65.77
21879;BME280;27908;42.708;23.278;2023-03-26T08:32:49;63977.81;;;12.53;66.12
21879;BME280;27908;42.708;23.278;2023-03-26T08:35:17;64023.53;;;12.70;65.28
21879;BME280;27908;42.708;23.278;2023-03-26T08:37:42;64021.66;;;12.85;64.64
21879;BME280;27908;42.708;23.278;2023-03-26T08:40:10;63994.03;;;12.85;64.02
21879;BME280;27908;42.708;23.278;2023-03-26T08:51:44;64042.22;;;12.95;61.06
21879;BME280;27908;42.708;23.278;2023-03-26T08:54:33;64047.38;;;13.00;61.88
21879;BME280;27908;42.708;23.278;2023-03-26T09:14:42;64164.38;;;13.70;59.50
21879;BME280;27908;42.708;23.278;2023-03-26T09:23:01;64148.03;;;13.74;57.06
21879;BME280;27908;42.708;23.278;2023-03-26T09:41:41;64218.56;;;14.02;54.93
21879;BME280;27908;42.708;23.278;2023-03-26T09:52:57;64263.50;;;14.32;52.73
21879;BME280;27908;42.708;23.278;2023-03-26T10:09:33;64260.31;;;14.24;51.82
21879;BME280;27908;42.708;23.278;2023-03-26T10:12:14;64314.53;;;14.57;49.74
21879;BME280;27908;42.708;23.278;2023-03-26T10:17:32;64323.94;;;14.70;51.72
21879;BME280;27908;42.708;23.278;2023-03-26T10:33:50;64478.69;;;15.78;48.70
21879;BME280;27908;42.708;23.278;2023-03-26T10:36:30;64497.53;;;15.62;45.56
21879;BME280;27908;42.708;23.278;2023-03-26T10:52:37;64492.78;;;15.97;43.93
21879;BME280;27908;42.708;23.278;2023-03-26T10:55:21;64536.97;;;15.95;41.37
21879;BME280;27908;42.708;23.278;2023-03-26T10:57:55;64526.31;;;16.06;42.87
21879;BME280;27908;42.708;23.278;2023-03-26T11:00:24;64541.44;;;16.26;42.32
21879;BME280;27908;42.708;23.278;2023-03-26T11:06:07;64512.38;;;16.01;39.93
21879;BME280;27908;42.708;23.278;2023-03-26T11:19:50;64544.13;;;16.36;40.10
21879;BME280;27908;42.708;23.278;2023-03-26T11:30:39;64536.88;;;15.87;38.64
21879;BME280;27908;42.708;23.278;2023-03-26T11:33:14;64481.22;;;15.73;39.98
21879;BME280;27908;42.708;23.278;2023-03-26T11:35:44;64593.88;;;16.22;41.75
21879;BME280;27908;42.708;23.278;2023-03-26T11:38:40;64609.06;;;16.43;40.54
21879;BME280;27908;42.708;23.278;2023-03-26T11:41:17;64597.75;;;16.45;38.85
21879;BME280;27908;42.708;23.278;2023-03-26T11:43:46;64589.09;;;16.54;38.00
21879;BME280;27908;42.708;23.278;2023-03-26T11:46:18;64609.69;;;16.54;40.16
21879;BME280;27908;42.708;23.278;2023-03-26T11:48:47;64645.22;;;16.53;41.47
21879;BME280;27908;42.708;23.278;2023-03-26T11:51:35;64709.72;;;17.09;39.03
21879;BME280;27908;42.708;23.278;2023-03-26T11:54:01;64750.63;;;17.24;38.36
21879;BME280;27908;42.708;23.278;2023-03-26T11:59:19;64720.06;;;17.12;38.87
21879;BME280;27908;42.708;23.278;2023-03-26T12:02:15;64750.66;;;17.29;36.52
21879;BME280;27908;42.708;23.278;2023-03-26T12:04:50;64844.84;;;17.57;37.42
21879;BME280;27908;42.708;23.278;2023-03-26T12:07:21;64797.22;;;17.44;37.49
21879;BME280;27908;42.708;23.278;2023-03-26T12:09:57;64836.72;;;17.69;36.72
21879;BME280;27908;42.708;23.278;2023-03-26T12:12:30;64873.03;;;17.86;34.19
21879;BME280;27908;42.708;23.278;2023-03-26T12:14:57;64916.16;;;18.07;36.72
21879;BME280;27908;42.708;23.278;2023-03-26T12:17:34;64767.91;;;17.50;34.84
21879;BME280;27908;42.708;23.278;2023-03-26T12:20:01;64792.69;;;17.54;34.16
21879;BME280;27908;42.708;23.278;2023-03-26T12:22:38;64785.66;;;17.69;34.25
21879;BME280;27908;42.708;23.278;2023-03-26T12:25:22;64798.47;;;17.62;34.42
21879;BME280;27908;42.708;23.278;2023-03-26T12:27:50;64799.50;;;17.60;34.06
21879;BME280;27908;42.708;23.278;2023-03-26T12:30:21;64789.69;;;17.58;34.02
21879;BME280;27908;42.708;23.278;2023-03-26T12:32:48;64811.06;;;17.79;35.37
21879;BME280;27908;42.708;23.278;2023-03-26T12:35:27;64865.31;;;17.88;33.96
21879;BME280;27908;42.708;23.278;2023-03-26T12:37:55;64868.97;;;17.92;32.68
21879;BME280;27908;42.708;23.278;2023-03-26T12:40:37;64861.84;;;18.00;31.17
21879;BME280;27908;42.708;23.278;2023-03-26T12:46:26;64784.91;;;17.49;32.45
21879;BME280;27908;42.708;23.278;2023-03-26T12:48:56;64854.47;;;17.85;31.92
21879;BME280;27908;42.708;23.278;2023-03-26T12:56:55;64963.94;;;18.33;30.27
21879;BME280;27908;42.708;23.278;2023-03-26T13:18:51;64929.84;;;18.30;28.31
21879;BME280;27908;42.708;23.278;2023-03-26T13:32:11;65106.50;;;19.09;28.76
21879;BME280;27908;42.708;23.278;2023-03-26T13:34:58;65126.88;;;19.25;28.76
21879;BME280;27908;42.708;23.278;2023-03-26T13:49:03;65099.47;;;19.26;30.40
21879;BME280;27908;42.708;23.278;2023-03-26T13:51:38;65186.88;;;19.67;29.84
21879;BME280;27908;42.708;23.278;2023-03-26T13:56:44;65287.56;;;20.26;26.80
21879;BME280;27908;42.708;23.278;2023-03-26T13:59:18;65396.09;;;20.45;27.11
21879;BME280;27908;42.708;23.278;2023-03-26T14:01:50;65309.41;;;20.32;26.82
21879;BME280;27908;42.708;23.278;2023-03-26T14:07:11;65125.63;;;19.51;26.90
21879;BME280;27908;42.708;23.278;2023-03-26T14:09:53;65274.00;;;20.18;27.77
21879;BME280;27908;42.708;23.278;2023-03-26T14:15:39;65406.34;;;20.71;26.69
21879;BME280;27908;42.708;23.278;2023-03-26T14:18:30;65526.34;;;21.23;26.82
21879;BME280;27908;42.708;23.278;2023-03-26T14:29:40;65780.88;;;22.30;27.00
21879;BME280;27908;42.708;23.278;2023-03-26T14:32:31;65798.88;;;22.52;26.39
21879;BME280;27908;42.708;23.278;2023-03-26T14:43:10;66223.91;;;24.42;24.46
21879;BME280;27908;42.708;23.278;2023-03-26T14:53:55;66048.16;;;23.78;24.30
21879;BME280;27908;42.708;23.278;2023-03-26T15:02:29;66454.38;;;25.13;23.34
21879;BME280;27908;42.708;23.278;2023-03-26T15:10:45;66025.56;;;23.66;25.06
21879;BME280;27908;42.708;23.278;2023-03-26T15:13:42;66021.69;;;23.53;25.14
21879;BME280;27908;42.708;23.278;2023-03-26T15:16:37;66124.44;;;23.91;26.67
21879;BME280;27908;42.708;23.278;2023-03-26T15:19:37;65856.06;;;22.84;27.07
21879;BME280;27908;42.708;23.278;2023-03-26T15:55:51;65780.09;;;22.47;27.47
21879;BME280;27908;42.708;23.278;2023-03-26T15:58:39;65641.09;;;21.97;28.25
21879;BME280;27908;42.708;23.278;2023-03-26T16:04:06;65735.63;;;22.27;27.69
21879;BME280;27908;42.708;23.278;2023-03-26T16:06:40;65558.69;;;21.37;28.12
21879;BME280;27908;42.708;23.278;2023-03-26T16:11:58;65418.94;;;20.83;29.47
21879;BME280;27908;42.708;23.278;2023-03-26T16:16:59;65182.66;;;19.61;30.24
21879;BME280;27908;42.708;23.278;2023-03-26T16:19:32;64964.78;;;18.58;31.63
21879;BME280;27908;42.708;23.278;2023-03-26T16:22:05;64861.72;;;17.90;33.56
21879;BME280;27908;42.708;23.278;2023-03-26T16:27:38;64690.28;;;17.20;33.73
21879;BME280;27908;42.708;23.278;2023-03-26T16:30:29;64716.44;;;17.11;34.86
21879;BME280;27908;42.708;23.278;2023-03-26T16:33:02;64686.44;;;17.00;34.58
21879;BME280;27908;42.708;23.278;2023-03-26T16:35:37;64661.53;;;16.86;35.26
21879;BME280;27908;42.708;23.278;2023-03-26T16:40:35;64600.38;;;16.50;36.07
21879;BME280;27908;42.708;23.278;2023-03-26T16:46:17;64549.09;;;16.18;36.93
21879;BME280;27908;42.708;23.278;2023-03-26T16:51:24;64490.19;;;15.94;38.32
21879;BME280;27908;42.708;23.278;2023-03-26T16:56:48;64493.56;;;15.75;38.80
21879;BME280;27908;42.708;23.278;2023-03-26T16:59:38;64409.97;;;15.42;39.97
21879;BME280;27908;42.708;23.278;2023-03-26T17:05:23;64334.47;;;14.95;42.58
21879;BME280;27908;42.708;23.278;2023-03-26T17:13:50;64294.03;;;14.57;42.96
21879;BME280;27908;42.708;23.278;2023-03-26T17:16:26;64219.00;;;14.46;44.30
21879;BME280;27908;42.708;23.278;2023-03-26T17:22:03;64193.69;;;14.29;45.12
21879;BME280;27908;42.708;23.278;2023-03-26T17:27:33;64175.69;;;14.20;43.20
21879;BME280;27908;42.708;23.278;2023-03-26T17:40:58;64155.91;;;13.93;46.33
21879;BME280;27908;42.708;23.278;2023-03-26T17:43:44;64165.97;;;13.76;48.45
21879;BME280;27908;42.708;23.278;2023-03-26T17:48:43;64124.31;;;13.61;47.28
21879;BME280;27908;42.708;23.278;2023-03-26T17:54:06;64083.13;;;13.39;47.94
21879;BME280;27908;42.708;23.278;2023-03-26T17:56:33;64119.97;;;13.37;48.86
21879;BME280;27908;42.708;23.278;2023-03-26T17:59:02;64063.59;;;13.32;48.55
21879;BME280;27908;42.708;23.278;2023-03-26T18:01:37;64071.25;;;13.30;48.30
21879;BME280;27908;42.708;23.278;2023-03-26T18:04:11;64083.44;;;13.19;50.17
21879;BME280;27908;42.708;23.278;2023-03-26T18:09:45;64034.19;;;13.09;51.00
21879;BME280;27908;42.708;23.278;2023-03-26T18:12:47;63998.25;;;12.97;51.31
21879;BME280;27908;42.708;23.278;2023-03-26T18:15:40;64012.88;;;12.79;51.55
21879;BME280;27908;42.708;23.278;2023-03-26T18:18:14;63949.66;;;12.48;52.58
21879;BME280;27908;42.708;23.278;2023-03-26T18:20:43;63928.63;;;12.40;54.00
21879;BME280;27908;42.708;23.278;2023-03-26T18:23:25;63918.22;;;12.23;54.62
21879;BME280;27908;42.708;23.278;2023-03-26T18:26:07;63856.09;;;11.93;54.68
21879;BME280;27908;42.708;23.278;2023-03-26T18:28:34;63888.94;;;12.09;55.15
21879;BME280;27908;42.708;23.278;2023-03-26T18:31:15;63856.22;;;12.05;55.33
21879;BME280;27908;42.708;23.278;2023-03-26T18:33:43;63865.38;;;12.04;55.93
21879;BME280;27908;42.708;23.278;2023-03-26T18:36:10;63882.66;;;11.96;55.90
21879;BME280;27908;42.708;23.278;2023-03-26T18:38:36;63855.53;;;11.87;56.79
21879;BME280;27908;42.708;23.278;2023-03-26T18:41:02;63838.53;;;11.76;57.14
21879;BME280;27908;42.708;23.278;2023-03-26T18:43:28;63849.19;;;11.67;56.88
21879;BME280;27908;42.708;23.278;2023-03-26T18:45:54;63795.44;;;11.54;57.84
21879;BME280;27908;42.708;23.278;2023-03-26T18:48:24;63806.63;;;11.48;59.22
21879;BME280;27908;42.708;23.278;2023-03-26T18:50:55;63827.06;;;11.50;58.63
21879;BME280;27908;42.708;23.278;2023-03-26T18:53:23;63807.09;;;11.46;60.06
21879;BME280;27908;42.708;23.278;2023-03-26T18:55:50;63839.31;;;11.50;60.38
21879;BME280;27908;42.708;23.278;2023-03-26T18:58:23;63774.94;;;11.44;60.14